createdAt,value
2023-04-15T00:00:31.382Z,1301.00
2023-04-15T00:01:31.308Z,1294.00
2023-04-15T00:02:31.345Z,1312.00
2023-04-15T00:03:31.317Z,1293.00
2023-04-15T00:04:31.174Z,1290.00
2023-04-15T00:05:31.027Z,1303.00
2023-04-15T00:06:31.002Z,1292.00
2023-04-15T00:07:30.971Z,1281.00
2023-04-15T00:08:30.983Z,1284.00
2023-04-15T00:09:30.925Z,1287.00
2023-04-15T00:10:30.908Z,1288.00
2023-04-15T00:11:30.874Z,1288.00
2023-04-15T00:12:30.845Z,1300.00
2023-04-15T00:13:30.811Z,1277.00
2023-04-15T00:14:30.793Z,1290.00
2023-04-15T00:15:30.757Z,1295.00
2023-04-15T00:16:30.749Z,1280.00
2023-04-15T00:17:30.740Z,1276.00
2023-04-15T00:18:30.683Z,1261.00
2023-04-15T00:19:30.631Z,1259.00
2023-04-15T00:20:30.603Z,1262.00
2023-04-15T00:21:30.573Z,1266.00
2023-04-15T00:22:30.532Z,1265.00
2023-04-15T00:23:30.501Z,1273.00
2023-04-15T00:24:30.474Z,1250.00
2023-04-15T00:25:30.442Z,1262.00
2023-04-15T00:26:30.404Z,1252.00
2023-04-15T00:27:30.368Z,1267.00
2023-04-15T00:28:30.326Z,1249.00
2023-04-15T00:29:30.306Z,1249.00
2023-04-15T00:30:30.342Z,1247.00
2023-04-15T00:31:30.263Z,1258.00
2023-04-15T00:32:30.210Z,1248.00
2023-04-15T00:33:30.159Z,1242.00
2023-04-15T00:34:30.129Z,1235.00
2023-04-15T00:35:30.084Z,1232.00
2023-04-15T00:36:30.058Z,1217.00
2023-04-15T00:37:30.024Z,1228.00
2023-04-15T00:38:29.996Z,1218.00
2023-04-15T00:39:29.965Z,1216.00
2023-04-15T00:40:29.926Z,1210.00
2023-04-15T00:41:29.892Z,1226.00
2023-04-15T00:42:29.873Z,1212.00
2023-04-15T00:43:29.843Z,1208.00
2023-04-15T00:44:29.815Z,1212.00
2023-04-15T00:45:29.788Z,1218.00
2023-04-15T00:46:29.737Z,1207.00
2023-04-15T00:47:29.732Z,1187.00
2023-04-15T00:48:29.662Z,1211.00
2023-04-15T00:49:29.622Z,1188.00
2023-04-15T00:50:29.582Z,1194.00
2023-04-15T00:51:29.551Z,1202.00
2023-04-15T00:52:29.527Z,1214.00
2023-04-15T00:53:29.508Z,1192.00
2023-04-15T00:54:29.480Z,1209.00
2023-04-15T00:55:29.467Z,1182.00
2023-04-15T00:56:29.439Z,1186.00
2023-04-15T00:57:29.409Z,1197.00
2023-04-15T00:58:29.391Z,1175.00
2023-04-15T00:59:29.359Z,1184.00
2023-04-15T01:00:30.037Z,1194.00
2023-04-15T01:01:29.332Z,1180.00
2023-04-15T01:02:29.488Z,1188.00
2023-04-15T01:03:29.351Z,1170.00
2023-04-15T01:04:29.283Z,1174.00
2023-04-15T01:05:29.189Z,1185.00
2023-04-15T01:06:29.214Z,1177.00
2023-04-15T01:07:29.127Z,1178.00
2023-04-15T01:08:29.111Z,1170.00
2023-04-15T01:09:29.076Z,1185.00
2023-04-15T01:10:29.039Z,1163.00
2023-04-15T01:11:29.011Z,1182.00
2023-04-15T01:12:28.977Z,1170.00
2023-04-15T01:13:28.955Z,1178.00
2023-04-15T01:14:28.923Z,1179.00
2023-04-15T01:15:28.885Z,1168.00
2023-04-15T01:16:28.913Z,1177.00
2023-04-15T01:17:28.829Z,1177.00
2023-04-15T01:18:28.786Z,1166.00
2023-04-15T01:19:28.749Z,1172.00
2023-04-15T01:20:28.730Z,1166.00
2023-04-15T01:21:28.682Z,1162.00
2023-04-15T01:22:28.656Z,1160.00
2023-04-15T01:23:28.616Z,1151.00
2023-04-15T01:24:28.595Z,1162.00
2023-04-15T01:25:28.571Z,1162.00
2023-04-15T01:26:28.536Z,1152.00
2023-04-15T01:27:28.509Z,1152.00
2023-04-15T01:28:28.502Z,1159.00
2023-04-15T01:29:28.456Z,1141.00
2023-04-15T01:30:28.443Z,1150.00
2023-04-15T01:31:28.427Z,1156.00
2023-04-15T01:32:28.391Z,1134.00
2023-04-15T01:33:28.352Z,1153.00
2023-04-15T01:34:28.331Z,1141.00
2023-04-15T01:35:28.303Z,1138.00
2023-04-15T01:36:28.278Z,1139.00
2023-04-15T01:37:28.260Z,1144.00
2023-04-15T01:38:28.239Z,1139.00
2023-04-15T01:39:28.209Z,1135.00
2023-04-15T01:40:28.190Z,1135.00
2023-04-15T01:41:28.184Z,1141.00
2023-04-15T01:42:28.161Z,1141.00
2023-04-15T01:43:28.131Z,1129.00
2023-04-15T01:44:28.115Z,1124.00
2023-04-15T01:45:28.117Z,1130.00
2023-04-15T01:46:28.123Z,1106.00
2023-04-15T01:47:28.135Z,1139.00
2023-04-15T01:48:28.062Z,1120.00
2023-04-15T01:49:28.044Z,1115.00
2023-04-15T01:50:28.030Z,1114.00
2023-04-15T01:51:28.011Z,1129.00
2023-04-15T01:52:28.002Z,1116.00
2023-04-15T01:53:27.994Z,1109.00
2023-04-15T01:54:27.977Z,1122.00
2023-04-15T01:55:27.966Z,1124.00
2023-04-15T01:56:27.954Z,1115.00
2023-04-15T01:57:27.932Z,1118.00
2023-04-15T01:58:27.932Z,1109.00
2023-04-15T01:59:27.905Z,1121.00
2023-04-15T02:00:27.895Z,1115.00
2023-04-15T02:01:27.985Z,1120.00
2023-04-15T02:02:27.924Z,1105.00
2023-04-15T02:03:27.980Z,1109.00
2023-04-15T02:04:27.814Z,1101.00
2023-04-15T02:05:27.817Z,1117.00
2023-04-15T02:06:27.793Z,1108.00
2023-04-15T02:07:27.779Z,1112.00
2023-04-15T02:08:27.766Z,1097.00
2023-04-15T02:09:27.750Z,1104.00
2023-04-15T02:10:27.739Z,1106.00
2023-04-15T02:11:27.722Z,1094.00
2023-04-15T02:12:27.705Z,1093.00
2023-04-15T02:13:27.691Z,1102.00
2023-04-15T02:14:27.680Z,1100.00
2023-04-15T02:15:27.672Z,1100.00
2023-04-15T02:16:27.662Z,1100.00
2023-04-15T02:17:27.692Z,1088.00
2023-04-15T02:18:27.626Z,1095.00
2023-04-15T02:19:27.622Z,1095.00
2023-04-15T02:20:27.612Z,1087.00
2023-04-15T02:21:27.576Z,1083.00
2023-04-15T02:22:27.552Z,1069.00
2023-04-15T02:23:27.537Z,1076.00
2023-04-15T02:24:27.522Z,1080.00
2023-04-15T02:25:27.511Z,1086.00
2023-04-15T02:26:27.499Z,1077.00
2023-04-15T02:27:27.481Z,1071.00
2023-04-15T02:28:27.470Z,1070.00
2023-04-15T02:29:27.464Z,1061.00
2023-04-15T02:30:27.452Z,1073.00
2023-04-15T02:31:27.500Z,1084.00
2023-04-15T02:32:27.437Z,1058.00
2023-04-15T02:33:27.400Z,1065.00
2023-04-15T02:34:27.385Z,1061.00
2023-04-15T02:35:27.378Z,1060.00
2023-04-15T02:36:27.355Z,1054.00
2023-04-15T02:37:27.353Z,1069.00
2023-04-15T02:38:27.333Z,1073.00
2023-04-15T02:39:27.351Z,1050.00
2023-04-15T02:40:27.319Z,1059.00
2023-04-15T02:41:27.292Z,1056.00
2023-04-15T02:42:27.284Z,1059.00
2023-04-15T02:43:27.298Z,1058.00
2023-04-15T02:44:27.268Z,1042.00
2023-04-15T02:45:27.245Z,1050.00
2023-04-15T02:46:27.271Z,1040.00
2023-04-15T02:47:27.242Z,1039.00
2023-04-15T02:48:27.212Z,1042.00
2023-04-15T02:49:27.207Z,1029.00
2023-04-15T02:50:27.201Z,1037.00
2023-04-15T02:51:27.249Z,1037.00
2023-04-15T02:52:27.180Z,1031.00
2023-04-15T02:53:27.167Z,1040.00
2023-04-15T02:54:27.157Z,1034.00
2023-04-15T02:55:27.171Z,1038.00
2023-04-15T02:56:27.141Z,1040.00
2023-04-15T02:57:27.134Z,1026.00
2023-04-15T02:58:27.125Z,1037.00
2023-04-15T02:59:27.112Z,1026.00
2023-04-15T03:00:27.111Z,1032.00
2023-04-15T03:01:27.145Z,1039.00
2023-04-15T03:02:27.209Z,1025.00
2023-04-15T03:03:27.139Z,1009.00
2023-04-15T03:04:27.076Z,1021.00
2023-04-15T03:05:27.068Z,1015.00
2023-04-15T03:06:27.062Z,1019.00
2023-04-15T03:07:27.054Z,1016.00
2023-04-15T03:08:27.051Z,1004.00
2023-04-15T03:09:27.038Z,991.00
2023-04-15T03:10:27.029Z,983.00
2023-04-15T03:11:27.030Z,1009.00
2023-04-15T03:12:27.012Z,994.00
2023-04-15T03:13:27.004Z,1012.00
2023-04-15T03:14:26.993Z,995.00
2023-04-15T03:15:27.023Z,995.00
2023-04-15T03:16:26.970Z,986.00
2023-04-15T03:17:26.973Z,986.00
2023-04-15T03:18:26.939Z,990.00
2023-04-15T03:19:26.938Z,980.00
2023-04-15T03:20:26.968Z,965.00
2023-04-15T03:21:26.924Z,984.00
2023-04-15T03:22:26.913Z,984.00
2023-04-15T03:23:26.907Z,977.00
2023-04-15T03:24:26.908Z,978.00
2023-04-15T03:25:26.886Z,983.00
2023-04-15T03:26:26.870Z,975.00
2023-04-15T03:27:26.857Z,974.00
2023-04-15T03:28:26.840Z,972.00
2023-04-15T03:29:26.839Z,959.00
2023-04-15T03:30:26.831Z,978.00
2023-04-15T03:31:26.896Z,975.00
2023-04-15T03:32:26.834Z,962.00
2023-04-15T03:33:26.776Z,964.00
2023-04-15T03:34:26.768Z,972.00
2023-04-15T03:35:26.752Z,964.00
2023-04-15T03:36:26.735Z,962.00
2023-04-15T03:37:26.717Z,959.00
2023-04-15T03:38:26.701Z,949.00
2023-04-15T03:39:26.695Z,955.00
2023-04-15T03:40:26.688Z,962.00
2023-04-15T03:41:26.694Z,954.00
2023-04-15T03:42:26.666Z,954.00
2023-04-15T03:43:26.658Z,948.00
2023-04-15T03:44:26.644Z,942.00
2023-04-15T03:45:26.643Z,951.00
2023-04-15T03:46:26.650Z,950.00
2023-04-15T03:47:26.619Z,945.00
2023-04-15T03:48:26.588Z,938.00
2023-04-15T03:49:26.567Z,933.00
2023-04-15T03:50:26.631Z,938.00
2023-04-15T03:51:26.535Z,937.00
2023-04-15T03:52:26.531Z,941.00
2023-04-15T03:53:26.524Z,935.00
2023-04-15T03:54:26.551Z,938.00
2023-04-15T03:55:26.511Z,937.00
2023-04-15T03:56:26.496Z,918.00
2023-04-15T03:57:26.512Z,935.00
2023-04-15T03:58:26.502Z,940.00
2023-04-15T03:59:26.494Z,922.00
2023-04-15T04:00:26.492Z,934.00
2023-04-15T04:01:26.470Z,932.00
2023-04-15T04:02:26.755Z,923.00
2023-04-15T04:03:26.578Z,931.00
2023-04-15T04:04:26.487Z,927.00
2023-04-15T04:05:26.449Z,913.00
2023-04-15T04:06:26.436Z,918.00
2023-04-15T04:07:26.445Z,916.00
2023-04-15T04:08:26.422Z,928.00
2023-04-15T04:09:26.428Z,920.00
2023-04-15T04:10:26.401Z,909.00
2023-04-15T04:11:26.366Z,909.00
2023-04-15T04:12:26.360Z,907.00
2023-04-15T04:13:26.352Z,903.00
2023-04-15T04:14:26.316Z,917.00
2023-04-15T04:15:26.333Z,907.00
2023-04-15T04:16:26.389Z,916.00
2023-04-15T04:17:26.280Z,884.00
2023-04-15T04:18:26.247Z,889.00
2023-04-15T04:19:26.235Z,897.00
2023-04-15T04:20:26.223Z,890.00
2023-04-15T04:21:26.207Z,873.00
2023-04-15T04:22:26.204Z,893.00
2023-04-15T04:23:26.187Z,897.00
2023-04-15T04:24:26.184Z,897.00
2023-04-15T04:25:26.176Z,892.00
2023-04-15T04:26:26.136Z,883.00
2023-04-15T04:27:26.133Z,876.00
2023-04-15T04:28:26.136Z,890.00
2023-04-15T04:29:26.098Z,880.00
2023-04-15T04:30:26.095Z,886.00
2023-04-15T04:31:26.105Z,883.00
2023-04-15T04:32:26.078Z,877.00
2023-04-15T04:33:26.041Z,877.00
2023-04-15T04:34:26.032Z,885.00
2023-04-15T04:35:26.030Z,879.00
2023-04-15T04:36:26.028Z,894.00
2023-04-15T04:37:26.020Z,879.00
2023-04-15T04:38:26.013Z,874.00
2023-04-15T04:39:26.021Z,876.00
2023-04-15T04:40:25.997Z,874.00
2023-04-15T04:41:25.989Z,868.00
2023-04-15T04:42:25.983Z,877.00
2023-04-15T04:43:25.975Z,873.00
2023-04-15T04:44:25.951Z,872.00
2023-04-15T04:45:25.959Z,866.00
2023-04-15T04:46:25.953Z,859.00
2023-04-15T04:47:25.965Z,870.00
2023-04-15T04:48:25.923Z,887.00
2023-04-15T04:49:25.883Z,871.00
2023-04-15T04:50:25.873Z,875.00
2023-04-15T04:51:25.848Z,869.00
2023-04-15T04:52:25.820Z,870.00
2023-04-15T04:53:25.805Z,865.00
2023-04-15T04:54:25.810Z,861.00
2023-04-15T04:55:25.789Z,866.00
2023-04-15T04:56:25.781Z,864.00
2023-04-15T04:57:25.762Z,842.00
2023-04-15T04:58:25.744Z,850.00
2023-04-15T04:59:25.744Z,862.00
2023-04-15T05:00:25.736Z,857.00
2023-04-15T05:01:25.804Z,873.00
2023-04-15T05:02:25.838Z,850.00
2023-04-15T05:03:25.753Z,861.00
2023-04-15T05:04:25.683Z,843.00
2023-04-15T05:05:25.680Z,845.00
2023-04-15T05:06:25.649Z,858.00
2023-04-15T05:07:25.641Z,857.00
2023-04-15T05:08:25.626Z,849.00
2023-04-15T05:09:25.615Z,851.00
2023-04-15T05:10:25.584Z,850.00
2023-04-15T05:11:25.571Z,861.00
2023-04-15T05:12:25.553Z,849.00
2023-04-15T05:13:25.536Z,858.00
2023-04-15T05:14:25.535Z,838.00
2023-04-15T05:15:25.501Z,839.00
2023-04-15T05:16:25.491Z,840.00
2023-04-15T05:17:25.523Z,855.00
2023-04-15T05:18:25.488Z,854.00
2023-04-15T05:19:25.488Z,847.00
2023-04-15T05:20:25.478Z,839.00
2023-04-15T05:21:25.470Z,843.00
2023-04-15T05:22:25.479Z,825.00
2023-04-15T05:23:25.469Z,832.00
2023-04-15T05:24:25.462Z,841.00
2023-04-15T05:25:25.446Z,840.00
2023-04-15T05:26:25.432Z,822.00
2023-04-15T05:27:25.414Z,837.00
2023-04-15T05:28:25.408Z,841.00
2023-04-15T05:29:25.405Z,829.00
2023-04-15T05:30:25.414Z,826.00
2023-04-15T05:31:25.425Z,847.00
2023-04-15T05:32:25.442Z,832.00
2023-04-15T05:33:25.396Z,834.00
2023-04-15T05:34:25.392Z,830.00
2023-04-15T05:35:25.383Z,829.00
2023-04-15T05:36:25.383Z,829.00
2023-04-15T05:37:25.380Z,826.00
2023-04-15T05:38:25.370Z,832.00
2023-04-15T05:39:25.374Z,822.00
2023-04-15T05:40:25.364Z,825.00
2023-04-15T05:41:25.350Z,816.00
2023-04-15T05:42:25.317Z,828.00
2023-04-15T05:43:25.291Z,823.00
2023-04-15T05:44:25.269Z,823.00
2023-04-15T05:45:25.248Z,831.00
2023-04-15T05:46:25.270Z,809.00
2023-04-15T05:47:25.263Z,816.00
2023-04-15T05:48:25.167Z,816.00
2023-04-15T05:49:25.156Z,814.00
2023-04-15T05:50:25.161Z,817.00
2023-04-15T05:51:25.150Z,824.00
2023-04-15T05:52:25.131Z,819.00
2023-04-15T05:53:25.130Z,835.00
2023-04-15T05:54:25.116Z,830.00
2023-04-15T05:55:25.115Z,815.00
2023-04-15T05:56:25.109Z,822.00
2023-04-15T05:57:25.109Z,824.00
2023-04-15T05:58:25.094Z,838.00
2023-04-15T05:59:25.093Z,823.00
2023-04-15T06:00:25.095Z,824.00
2023-04-15T06:01:25.083Z,810.00
2023-04-15T06:02:25.121Z,802.00
2023-04-15T06:03:25.161Z,794.00
2023-04-15T06:04:25.125Z,816.00
2023-04-15T06:05:25.046Z,818.00
2023-04-15T06:06:25.058Z,809.00
2023-04-15T06:07:25.024Z,815.00
2023-04-15T06:08:25.008Z,825.00
2023-04-15T06:09:24.990Z,809.00
2023-04-15T06:10:24.987Z,796.00
2023-04-15T06:11:24.982Z,806.00
2023-04-15T06:12:24.962Z,807.00
2023-04-15T06:13:24.955Z,807.00
2023-04-15T06:14:24.937Z,811.00
2023-04-15T06:15:24.908Z,812.00
2023-04-15T06:16:24.926Z,816.00
2023-04-15T06:17:24.883Z,815.00
2023-04-15T06:18:24.841Z,784.00
2023-04-15T06:19:24.850Z,807.00
2023-04-15T06:20:24.907Z,803.00
2023-04-15T06:21:24.810Z,808.00
2023-04-15T06:22:24.788Z,802.00
2023-04-15T06:23:26.291Z,815.00
2023-04-15T06:24:24.757Z,806.00
2023-04-15T06:25:24.786Z,805.00
2023-04-15T06:26:24.723Z,822.00
2023-04-15T06:27:24.686Z,804.00
2023-04-15T06:28:24.665Z,801.00
2023-04-15T06:29:24.650Z,811.00
2023-04-15T06:30:24.652Z,803.00
2023-04-15T06:31:24.692Z,804.00
2023-04-15T06:32:24.643Z,807.00
2023-04-15T06:33:24.614Z,811.00
2023-04-15T06:34:24.585Z,812.00
2023-04-15T06:35:24.577Z,806.00
2023-04-15T06:36:24.582Z,801.00
2023-04-15T06:37:24.549Z,812.00
2023-04-15T06:38:24.527Z,810.00
2023-04-15T06:39:24.518Z,805.00
2023-04-15T06:40:24.510Z,807.00
2023-04-15T06:41:24.493Z,805.00
2023-04-15T06:42:24.470Z,810.00
2023-04-15T06:43:24.468Z,811.00
2023-04-15T06:44:24.440Z,808.00
2023-04-15T06:45:24.441Z,790.00
2023-04-15T06:46:24.569Z,807.00
2023-04-15T06:47:24.393Z,808.00
2023-04-15T06:48:24.331Z,794.00
2023-04-15T06:49:24.315Z,805.00
2023-04-15T06:50:24.294Z,791.00
2023-04-15T06:51:25.584Z,788.00
2023-04-15T06:52:24.239Z,798.00
2023-04-15T06:53:24.228Z,812.00
2023-04-15T06:54:24.203Z,803.00
2023-04-15T06:55:24.172Z,813.00
2023-04-15T06:56:24.157Z,813.00
2023-04-15T06:57:24.122Z,807.00
2023-04-15T06:58:24.097Z,799.00
2023-04-15T06:59:24.055Z,805.00
2023-04-15T07:00:24.042Z,812.00
2023-04-15T07:01:24.016Z,792.00
2023-04-15T07:02:24.054Z,805.00
2023-04-15T07:03:24.023Z,811.00
2023-04-15T07:04:23.929Z,809.00
2023-04-15T07:05:23.877Z,786.00
2023-04-15T07:06:23.847Z,819.00
2023-04-15T07:07:23.805Z,806.00
2023-04-15T07:08:23.767Z,804.00
2023-04-15T07:09:23.709Z,802.00
2023-04-15T07:10:24.566Z,811.00
2023-04-15T07:11:23.628Z,801.00
2023-04-15T07:12:23.596Z,806.00
2023-04-15T07:13:23.537Z,817.00
2023-04-15T07:14:23.493Z,815.00
2023-04-15T07:15:23.449Z,798.00
2023-04-15T07:16:23.417Z,815.00
2023-04-15T07:17:23.392Z,804.00
2023-04-15T07:18:23.304Z,800.00
2023-04-15T07:19:23.281Z,800.00
2023-04-15T07:20:23.256Z,804.00
2023-04-15T07:21:23.163Z,807.00
2023-04-15T07:22:23.150Z,807.00
2023-04-15T07:23:23.063Z,822.00
2023-04-15T07:24:23.003Z,800.00
2023-04-15T07:25:22.946Z,813.00
2023-04-15T07:26:22.892Z,810.00
2023-04-15T07:27:22.854Z,804.00
2023-04-15T07:28:22.796Z,805.00
2023-04-15T07:29:22.723Z,805.00
2023-04-15T07:30:22.668Z,793.00
2023-04-15T07:31:22.688Z,797.00
2023-04-15T07:32:22.580Z,798.00
2023-04-15T07:33:22.502Z,803.00
2023-04-15T07:34:22.428Z,790.00
2023-04-15T07:35:22.402Z,794.00
2023-04-15T07:36:22.307Z,792.00
2023-04-15T07:37:22.241Z,795.00
2023-04-15T07:38:22.187Z,794.00
2023-04-15T07:39:22.107Z,798.00
2023-04-15T07:40:22.052Z,770.00
2023-04-15T07:41:21.975Z,788.00
2023-04-15T07:42:21.937Z,795.00
2023-04-15T07:43:21.853Z,778.00
2023-04-15T07:44:21.817Z,784.00
2023-04-15T07:45:21.729Z,781.00
2023-04-15T07:46:21.712Z,783.00
2023-04-15T07:47:21.625Z,782.00
2023-04-15T07:48:21.534Z,779.00
2023-04-15T07:49:21.541Z,786.00
2023-04-15T07:50:21.407Z,771.00
2023-04-15T07:51:21.329Z,782.00
2023-04-15T07:52:21.280Z,775.00
2023-04-15T07:53:21.209Z,794.00
2023-04-15T07:54:21.132Z,768.00
2023-04-15T07:55:21.070Z,777.00
2023-04-15T07:56:21.014Z,775.00
2023-04-15T07:57:20.937Z,782.00
2023-04-15T07:58:20.874Z,792.00
2023-04-15T07:59:20.800Z,771.00
2023-04-15T08:00:20.744Z,784.00
2023-04-15T08:01:20.678Z,771.00
2023-04-15T08:02:20.704Z,772.00
2023-04-15T08:03:20.677Z,776.00
2023-04-15T08:04:20.675Z,775.00
2023-04-15T08:05:20.449Z,773.00
2023-04-15T08:06:20.357Z,779.00
2023-04-15T08:07:20.288Z,784.00
2023-04-15T08:08:20.241Z,773.00
2023-04-15T08:09:20.170Z,774.00
2023-04-15T08:10:20.106Z,763.00
2023-04-15T08:11:20.051Z,775.00
2023-04-15T08:12:20.003Z,785.00
2023-04-15T08:13:19.920Z,764.00
2023-04-15T08:14:19.844Z,768.00
2023-04-15T08:15:19.780Z,773.00
2023-04-15T08:16:19.887Z,779.00
2023-04-15T08:17:19.668Z,797.00
2023-04-15T08:18:19.595Z,776.00
2023-04-15T08:19:19.512Z,787.00
2023-04-15T08:20:19.465Z,783.00
2023-04-15T08:21:19.396Z,776.00
2023-04-15T08:22:20.636Z,771.00
2023-04-15T08:23:19.383Z,769.00
2023-04-15T08:24:19.376Z,773.00
2023-04-15T08:25:19.239Z,774.00
2023-04-15T08:26:19.166Z,784.00
2023-04-15T08:27:19.107Z,772.00
2023-04-15T08:28:19.037Z,780.00
2023-04-15T08:29:18.971Z,776.00
2023-04-15T08:30:18.930Z,775.00
2023-04-15T08:31:18.851Z,783.00
2023-04-15T08:32:18.765Z,782.00
2023-04-15T08:33:18.673Z,792.00
2023-04-15T08:34:18.607Z,777.00
2023-04-15T08:35:18.545Z,774.00
2023-04-15T08:36:18.472Z,784.00
2023-04-15T08:37:18.403Z,782.00
2023-04-15T08:38:18.338Z,775.00
2023-04-15T08:39:18.272Z,784.00
2023-04-15T08:40:18.210Z,784.00
2023-04-15T08:41:18.136Z,774.00
2023-04-15T08:42:18.070Z,776.00
2023-04-15T08:43:18.000Z,772.00
2023-04-15T08:44:17.971Z,777.00
2023-04-15T08:45:17.901Z,768.00
2023-04-15T08:46:17.899Z,772.00
2023-04-15T08:47:17.839Z,779.00
2023-04-15T08:48:17.820Z,786.00
2023-04-15T08:49:17.777Z,764.00
2023-04-15T08:50:17.711Z,763.00
2023-04-15T08:51:17.704Z,767.00
2023-04-15T08:52:17.666Z,766.00
2023-04-15T08:53:17.605Z,767.00
2023-04-15T08:54:17.549Z,775.00
2023-04-15T08:55:17.483Z,770.00
2023-04-15T08:56:17.477Z,774.00
2023-04-15T08:57:17.389Z,770.00
2023-04-15T08:58:17.345Z,772.00
2023-04-15T08:59:17.311Z,758.00
2023-04-15T09:00:17.303Z,772.00
2023-04-15T09:01:17.259Z,783.00
2023-04-15T09:02:17.309Z,777.00
2023-04-15T09:03:17.215Z,761.00
2023-04-15T09:04:17.226Z,775.00
2023-04-15T09:05:17.110Z,776.00
2023-04-15T09:06:17.088Z,780.00
2023-04-15T09:07:17.044Z,777.00
2023-04-15T09:08:17.157Z,786.00
2023-04-15T09:09:17.030Z,777.00
2023-04-15T09:10:17.015Z,770.00
2023-04-15T09:11:18.942Z,775.00
2023-04-15T09:12:16.935Z,774.00
2023-04-15T09:13:16.826Z,780.00
2023-04-15T09:14:16.731Z,783.00
2023-04-15T09:15:16.668Z,773.00
2023-04-15T09:16:16.586Z,765.00
2023-04-15T09:17:16.484Z,783.00
2023-04-15T09:18:16.394Z,786.00
2023-04-15T09:19:16.305Z,775.00
2023-04-15T09:20:16.277Z,779.00
2023-04-15T09:21:16.168Z,770.00
2023-04-15T09:22:16.086Z,783.00
2023-04-15T09:23:16.030Z,787.00
2023-04-15T09:24:15.927Z,774.00
2023-04-15T09:25:15.848Z,779.00
2023-04-15T09:26:15.762Z,769.00
2023-04-15T09:27:15.671Z,768.00
2023-04-15T09:28:15.594Z,769.00
2023-04-15T09:29:15.519Z,782.00
2023-04-15T09:30:15.437Z,782.00
2023-04-15T09:31:15.397Z,773.00
2023-04-15T09:32:15.304Z,771.00
2023-04-15T09:33:15.191Z,774.00
2023-04-15T09:34:15.107Z,763.00
2023-04-15T09:35:15.048Z,762.00
2023-04-15T09:36:14.945Z,762.00
2023-04-15T09:37:28.573Z,772.00
2023-04-15T09:38:15.792Z,773.00
2023-04-15T09:39:14.700Z,774.00
2023-04-15T09:40:14.623Z,774.00
2023-04-15T09:41:14.532Z,760.00
2023-04-15T09:42:14.463Z,778.00
2023-04-15T09:43:14.382Z,772.00
2023-04-15T09:44:14.298Z,780.00
2023-04-15T09:45:14.243Z,769.00
2023-04-15T09:46:14.200Z,770.00
2023-04-15T09:47:14.049Z,773.00
2023-04-15T09:48:13.988Z,774.00
2023-04-15T09:49:13.996Z,767.00
2023-04-15T09:50:13.933Z,779.00
2023-04-15T09:51:13.881Z,781.00
2023-04-15T09:52:13.857Z,773.00
2023-04-15T09:53:13.813Z,781.00
2023-04-15T09:54:13.778Z,773.00
2023-04-15T09:55:13.748Z,781.00
2023-04-15T09:56:13.705Z,776.00
2023-04-15T09:57:13.669Z,790.00
2023-04-15T09:58:13.607Z,774.00
2023-04-15T09:59:13.565Z,778.00
2023-04-15T10:00:13.513Z,780.00
2023-04-15T10:01:13.541Z,782.00
2023-04-15T10:02:13.502Z,769.00
2023-04-15T10:03:13.433Z,770.00
2023-04-15T10:04:13.404Z,769.00
2023-04-15T10:05:13.263Z,773.00
2023-04-15T10:06:13.214Z,781.00
2023-04-15T10:07:13.162Z,773.00
2023-04-15T10:08:13.118Z,778.00
2023-04-15T10:09:13.069Z,772.00
2023-04-15T10:10:13.068Z,783.00
2023-04-15T10:11:13.000Z,778.00
2023-04-15T10:12:12.934Z,773.00
2023-04-15T10:13:12.883Z,783.00
2023-04-15T10:14:12.843Z,779.00
2023-04-15T10:15:12.794Z,789.00
2023-04-15T10:16:12.797Z,791.00
2023-04-15T10:17:12.708Z,788.00
2023-04-15T10:18:12.663Z,769.00
2023-04-15T10:19:12.632Z,774.00
2023-04-15T10:20:12.588Z,780.00
2023-04-15T10:21:12.561Z,786.00
2023-04-15T10:22:12.516Z,793.00
2023-04-15T10:23:13.459Z,771.00
2023-04-15T10:24:12.421Z,772.00
2023-04-15T10:25:12.393Z,779.00
2023-04-15T10:26:12.354Z,761.00
2023-04-15T10:27:12.303Z,771.00
2023-04-15T10:28:12.260Z,777.00
2023-04-15T10:29:12.214Z,778.00
2023-04-15T10:30:12.187Z,768.00
2023-04-15T10:31:12.201Z,766.00
2023-04-15T10:32:12.094Z,779.00
2023-04-15T10:33:12.055Z,768.00
2023-04-15T10:34:12.020Z,777.00
2023-04-15T10:35:11.977Z,770.00
2023-04-15T10:36:11.943Z,768.00
2023-04-15T10:37:11.901Z,774.00
2023-04-15T10:38:11.850Z,772.00
2023-04-15T10:39:11.810Z,758.00
2023-04-15T10:40:11.773Z,763.00
2023-04-15T10:41:11.730Z,758.00
2023-04-15T10:42:11.702Z,769.00
2023-04-15T10:43:11.673Z,775.00
2023-04-15T10:44:11.614Z,757.00
2023-04-15T10:45:11.565Z,764.00
2023-04-15T10:46:11.545Z,770.00
2023-04-15T10:47:11.484Z,765.00
2023-04-15T10:48:11.481Z,770.00
2023-04-15T10:49:11.403Z,766.00
2023-04-15T10:50:11.356Z,760.00
2023-04-15T10:51:11.325Z,761.00
2023-04-15T10:52:11.277Z,763.00
2023-04-15T10:53:11.259Z,770.00
2023-04-15T10:54:11.207Z,764.00
2023-04-15T10:55:11.176Z,752.00
2023-04-15T10:56:11.133Z,755.00
2023-04-15T10:57:11.095Z,753.00
2023-04-15T10:58:11.043Z,739.00
2023-04-15T10:59:11.011Z,763.00
2023-04-15T11:00:10.962Z,763.00
2023-04-15T11:01:10.924Z,749.00
2023-04-15T11:02:10.998Z,761.00
2023-04-15T11:03:11.040Z,753.00
2023-04-15T11:04:10.967Z,759.00
2023-04-15T11:05:10.841Z,763.00
2023-04-15T11:06:10.752Z,760.00
2023-04-15T11:07:10.751Z,746.00
2023-04-15T11:08:10.685Z,759.00
2023-04-15T11:09:10.646Z,755.00
2023-04-15T11:10:10.613Z,753.00
2023-04-15T11:11:10.571Z,758.00
2023-04-15T11:12:10.551Z,759.00
2023-04-15T11:13:10.503Z,746.00
2023-04-15T11:14:10.470Z,761.00
2023-04-15T11:15:10.438Z,744.00
2023-04-15T11:16:10.481Z,752.00
2023-04-15T11:17:10.357Z,755.00
2023-04-15T11:18:10.372Z,741.00
2023-04-15T11:19:10.315Z,758.00
2023-04-15T11:20:10.270Z,765.00
2023-04-15T11:21:10.238Z,752.00
2023-04-15T11:22:10.215Z,759.00
2023-04-15T11:23:15.038Z,753.00
2023-04-15T11:24:11.097Z,753.00
2023-04-15T11:25:10.019Z,754.00
2023-04-15T11:26:10.019Z,758.00
2023-04-15T11:27:09.864Z,758.00
2023-04-15T11:28:09.784Z,762.00
2023-04-15T11:29:09.698Z,767.00
2023-04-15T11:30:09.614Z,758.00
2023-04-15T11:31:09.526Z,758.00
2023-04-15T11:32:09.644Z,737.00
2023-04-15T11:33:09.422Z,758.00
2023-04-15T11:34:09.310Z,749.00
2023-04-15T11:35:09.284Z,759.00
2023-04-15T11:36:09.261Z,750.00
2023-04-15T11:37:09.227Z,750.00
2023-04-15T11:38:09.211Z,759.00
2023-04-15T11:39:09.175Z,750.00
2023-04-15T11:40:09.151Z,751.00
2023-04-15T11:41:09.132Z,751.00
2023-04-15T11:42:09.110Z,761.00
2023-04-15T11:43:09.166Z,759.00
2023-04-15T11:44:09.073Z,749.00
2023-04-15T11:45:09.043Z,758.00
2023-04-15T11:46:09.071Z,766.00
2023-04-15T11:47:09.011Z,758.00
2023-04-15T11:48:09.021Z,754.00
2023-04-15T11:49:08.953Z,744.00
2023-04-15T11:50:08.938Z,764.00
2023-04-15T11:51:08.914Z,755.00
2023-04-15T11:52:08.884Z,756.00
2023-04-15T11:53:08.874Z,761.00
2023-04-15T11:54:08.851Z,755.00
2023-04-15T11:55:08.848Z,754.00
2023-04-15T11:56:08.925Z,752.00
2023-04-15T11:57:08.818Z,761.00
2023-04-15T11:58:08.807Z,751.00
2023-04-15T11:59:08.770Z,750.00
2023-04-15T12:00:08.763Z,755.00
2023-04-15T12:01:08.751Z,747.00
2023-04-15T12:02:08.795Z,753.00
2023-04-15T12:03:08.905Z,754.00
2023-04-15T12:04:08.978Z,754.00
2023-04-15T12:05:08.735Z,760.00
2023-04-15T12:06:08.658Z,761.00
2023-04-15T12:07:08.650Z,753.00
2023-04-15T12:08:08.618Z,749.00
2023-04-15T12:09:08.602Z,752.00
2023-04-15T12:10:08.666Z,765.00
2023-04-15T12:11:08.566Z,758.00
2023-04-15T12:12:08.537Z,745.00
2023-04-15T12:13:08.514Z,754.00
2023-04-15T12:14:08.508Z,772.00
2023-04-15T12:15:08.481Z,750.00
2023-04-15T12:16:08.522Z,760.00
2023-04-15T12:17:08.441Z,753.00
2023-04-15T12:18:08.451Z,761.00
2023-04-15T12:19:08.386Z,758.00
2023-04-15T12:20:08.368Z,760.00
2023-04-15T12:21:08.340Z,765.00
2023-04-15T12:22:08.322Z,767.00